createdAt,value
2023-03-31T00:00:06.598Z,97562.00
2023-03-31T00:00:16.590Z,97564.00
2023-03-31T00:00:26.865Z,97566.00
2023-03-31T00:00:36.878Z,97570.00
2023-03-31T00:00:46.906Z,97570.00
2023-03-31T00:00:56.903Z,97572.00
2023-03-31T00:01:06.906Z,97572.00
2023-03-31T00:01:16.916Z,97570.00
2023-03-31T00:01:26.928Z,97568.00
2023-03-31T00:01:36.956Z,97566.00
2023-03-31T00:01:46.957Z,97566.00
2023-03-31T00:01:56.978Z,97570.00
2023-03-31T00:02:06.973Z,97568.00
2023-03-31T00:02:16.993Z,97566.00
2023-03-31T00:02:27.059Z,97566.00
2023-03-31T00:02:37.190Z,97566.00
2023-03-31T00:02:47.224Z,97564.00
2023-03-31T00:02:57.232Z,97566.00
2023-03-31T00:03:07.329Z,97564.00
2023-03-31T00:03:17.723Z,97566.00
2023-03-31T00:03:27.792Z,97564.00
2023-03-31T00:03:37.855Z,97564.00
2023-03-31T00:03:48.215Z,97562.00
2023-03-31T00:03:58.379Z,97564.00
2023-03-31T00:04:08.378Z,97560.00
2023-03-31T00:04:18.342Z,97558.00
2023-03-31T00:04:28.331Z,97552.00
2023-03-31T00:04:38.397Z,97554.00
2023-03-31T00:04:48.402Z,97552.00
2023-03-31T00:04:58.666Z,97550.00
2023-03-31T00:05:08.616Z,97550.00
2023-03-31T00:05:18.614Z,97546.00
2023-03-31T00:05:29.012Z,97544.00
2023-03-31T00:05:38.996Z,97542.00
2023-03-31T00:05:49.153Z,97540.00
2023-03-31T00:05:59.454Z,97536.00
2023-03-31T00:06:09.440Z,97536.00
2023-03-31T00:06:19.532Z,97535.00
2023-03-31T00:06:29.526Z,97531.00
2023-03-31T00:06:39.543Z,97525.00
2023-03-31T00:06:49.546Z,97525.00
2023-03-31T00:06:59.565Z,97523.00
2023-03-31T00:07:09.569Z,97523.00
2023-03-31T00:07:19.575Z,97523.00
2023-03-31T00:07:29.584Z,97523.00
2023-03-31T00:07:39.594Z,97521.00
2023-03-31T00:07:49.647Z,97517.00
2023-03-31T00:07:59.634Z,97517.00
2023-03-31T00:08:09.751Z,97517.00
2023-03-31T00:08:19.762Z,97517.00
2023-03-31T00:08:29.783Z,97519.00
2023-03-31T00:08:39.788Z,97517.00
2023-03-31T00:08:50.048Z,97521.00
2023-03-31T00:09:00.056Z,97521.00
2023-03-31T00:09:11.582Z,97521.00
2023-03-31T00:09:20.169Z,97521.00
2023-03-31T00:09:30.182Z,97521.00
2023-03-31T00:09:40.181Z,97519.00
2023-03-31T00:09:50.284Z,97521.00
2023-03-31T00:10:16.116Z,97523.00
2023-03-31T00:10:17.813Z,97523.00
2023-03-31T00:10:20.426Z,97523.00
2023-03-31T00:10:30.416Z,97519.00
2023-03-31T00:10:40.426Z,97519.00
2023-03-31T00:10:50.466Z,97519.00
2023-03-31T00:11:00.452Z,97521.00
2023-03-31T00:11:10.586Z,97521.00
2023-03-31T00:11:20.592Z,97525.00
2023-03-31T00:11:30.724Z,97521.00
2023-03-31T00:11:40.984Z,97527.00
2023-03-31T00:11:51.007Z,97527.00
2023-03-31T00:12:01.003Z,97527.00
2023-03-31T00:12:11.003Z,97529.00
2023-03-31T00:12:21.009Z,97527.00
2023-03-31T00:12:31.159Z,97527.00
2023-03-31T00:12:41.163Z,97525.00
2023-03-31T00:12:51.174Z,97527.00
2023-03-31T00:13:01.175Z,97527.00
2023-03-31T00:13:11.176Z,97529.00
2023-03-31T00:13:21.468Z,97529.00
2023-03-31T00:13:31.674Z,97527.00
2023-03-31T00:13:41.673Z,97527.00
2023-03-31T00:13:51.942Z,97531.00
2023-03-31T00:14:01.949Z,97531.00
2023-03-31T00:14:11.975Z,97535.00
2023-03-31T00:14:21.971Z,97535.00
2023-03-31T00:14:31.981Z,97538.00
2023-03-31T00:14:41.977Z,97542.00
2023-03-31T00:14:52.071Z,97540.00
2023-03-31T00:15:02.098Z,97544.00
2023-03-31T00:15:12.180Z,97542.00
2023-03-31T00:15:22.220Z,97542.00
2023-03-31T00:15:32.233Z,97538.00
2023-03-31T00:15:42.252Z,97535.00
2023-03-31T00:15:54.366Z,97533.00
2023-03-31T00:16:02.358Z,97535.00
2023-03-31T00:16:12.399Z,97535.00
2023-03-31T00:16:22.424Z,97535.00
2023-03-31T00:16:32.458Z,97542.00
2023-03-31T00:16:42.567Z,97542.00
2023-03-31T00:16:52.513Z,97548.00
2023-03-31T00:17:02.662Z,97550.00
2023-03-31T00:17:12.768Z,97550.00
2023-03-31T00:17:22.772Z,97550.00
2023-03-31T00:17:32.802Z,97550.00
2023-03-31T00:17:42.879Z,97548.00
2023-03-31T00:17:52.973Z,97548.00
2023-03-31T00:18:03.154Z,97544.00
2023-03-31T00:18:13.190Z,97542.00
2023-03-31T00:18:23.188Z,97542.00
2023-03-31T00:18:33.635Z,97538.00
2023-03-31T00:18:43.635Z,97538.00
2023-03-31T00:18:53.670Z,97544.00
2023-03-31T00:19:03.679Z,97550.00
2023-03-31T00:19:13.684Z,97556.00
2023-03-31T00:19:23.692Z,97552.00
2023-03-31T00:19:33.709Z,97548.00
2023-03-31T00:19:43.747Z,97542.00
2023-03-31T00:19:53.735Z,97533.00
2023-03-31T00:20:03.748Z,97529.00
2023-03-31T00:20:13.753Z,97529.00
2023-03-31T00:20:23.773Z,97540.00
2023-03-31T00:20:33.785Z,97544.00
2023-03-31T00:20:43.796Z,97548.00
2023-03-31T00:20:53.810Z,97548.00
2023-03-31T00:21:03.831Z,97546.00
2023-03-31T00:21:13.828Z,97544.00
2023-03-31T00:21:23.832Z,97544.00
2023-03-31T00:21:34.033Z,97546.00
2023-03-31T00:21:43.836Z,97548.00
2023-03-31T00:21:53.841Z,97546.00
2023-03-31T00:22:03.854Z,97544.00
2023-03-31T00:22:13.974Z,97540.00
2023-03-31T00:22:24.005Z,97538.00
2023-03-31T00:22:34.276Z,97538.00
2023-03-31T00:22:44.269Z,97538.00
2023-03-31T00:22:54.268Z,97540.00
2023-03-31T00:23:04.279Z,97540.00
2023-03-31T00:23:14.320Z,97540.00
2023-03-31T00:23:24.334Z,97540.00
2023-03-31T00:23:34.363Z,97540.00
2023-03-31T00:23:44.356Z,97540.00
2023-03-31T00:23:54.363Z,97538.00
2023-03-31T00:24:04.374Z,97536.00
2023-03-31T00:24:14.378Z,97536.00
2023-03-31T00:24:24.370Z,97538.00
2023-03-31T00:24:34.517Z,97538.00
2023-03-31T00:24:44.536Z,97538.00
2023-03-31T00:24:54.544Z,97527.00
2023-03-31T00:25:04.546Z,97525.00
2023-03-31T00:25:14.671Z,97529.00
2023-03-31T00:25:24.807Z,97525.00
2023-03-31T00:25:34.819Z,97525.00
2023-03-31T00:25:44.835Z,97527.00
2023-03-31T00:25:54.848Z,97525.00
2023-03-31T00:26:05.122Z,97523.00
2023-03-31T00:26:14.955Z,97523.00
2023-03-31T00:26:24.967Z,97517.00
2023-03-31T00:26:34.960Z,97519.00
2023-03-31T00:26:44.964Z,97517.00
2023-03-31T00:26:54.969Z,97519.00
2023-03-31T00:27:04.970Z,97519.00
2023-03-31T00:27:14.979Z,97515.00
2023-03-31T00:27:24.981Z,97517.00
2023-03-31T00:27:34.990Z,97515.00
2023-03-31T00:27:45.009Z,97513.00
2023-03-31T00:27:55.005Z,97509.00
2023-03-31T00:28:05.012Z,97511.00
2023-03-31T00:28:15.029Z,97511.00
2023-03-31T00:28:25.036Z,97513.00
2023-03-31T00:28:35.041Z,97513.00
2023-03-31T00:28:45.047Z,97513.00
2023-03-31T00:28:55.065Z,97517.00
2023-03-31T00:29:05.178Z,97515.00
2023-03-31T00:29:15.188Z,97509.00
2023-03-31T00:29:25.439Z,97513.00
2023-03-31T00:29:35.449Z,97511.00
2023-03-31T00:29:45.639Z,97511.00
2023-03-31T00:29:55.889Z,97509.00
2023-03-31T00:30:05.902Z,97507.00
2023-03-31T00:30:15.938Z,97503.00
2023-03-31T00:30:25.911Z,97503.00
2023-03-31T00:30:35.951Z,97503.00
2023-03-31T00:30:45.938Z,97501.00
2023-03-31T00:30:55.943Z,97501.00
2023-03-31T00:31:05.994Z,97499.00
2023-03-31T00:31:16.042Z,97501.00
2023-03-31T00:31:26.201Z,97497.00
2023-03-31T00:31:36.504Z,97495.00
2023-03-31T00:31:46.565Z,97495.00
2023-03-31T00:31:56.637Z,97495.00
2023-03-31T00:32:06.789Z,97491.00
2023-03-31T00:32:16.767Z,97491.00
2023-03-31T00:32:26.774Z,97489.00
2023-03-31T00:32:36.874Z,97489.00
2023-03-31T00:32:46.913Z,97489.00
2023-03-31T00:32:56.950Z,97487.00
2023-03-31T00:33:07.085Z,97489.00
2023-03-31T00:33:17.347Z,97487.00
2023-03-31T00:33:27.372Z,97489.00
2023-03-31T00:33:37.509Z,97487.00
2023-03-31T00:33:47.391Z,97489.00
2023-03-31T00:33:57.396Z,97485.00
2023-03-31T00:34:07.415Z,97485.00
2023-03-31T00:34:17.421Z,97481.00
2023-03-31T00:34:27.587Z,97483.00
2023-03-31T00:34:37.581Z,97481.00
2023-03-31T00:34:47.617Z,97481.00
2023-03-31T00:34:57.866Z,97481.00
2023-03-31T00:35:07.987Z,97481.00
2023-03-31T00:35:17.999Z,97481.00
2023-03-31T00:35:28.253Z,97481.00
2023-03-31T00:35:38.293Z,97481.00
2023-03-31T00:35:48.330Z,97481.00
2023-03-31T00:35:58.359Z,97483.00
2023-03-31T00:36:08.711Z,97483.00
2023-03-31T00:36:18.515Z,97483.00
2023-03-31T00:36:28.629Z,97485.00
2023-03-31T00:36:38.586Z,97485.00
2023-03-31T00:36:48.601Z,97485.00
2023-03-31T00:36:58.596Z,97487.00
2023-03-31T00:37:08.973Z,97485.00
2023-03-31T00:37:19.031Z,97485.00
2023-03-31T00:37:29.091Z,97485.00
2023-03-31T00:37:39.100Z,97481.00
2023-03-31T00:37:49.117Z,97480.00
2023-03-31T00:37:59.115Z,97480.00
2023-03-31T00:38:09.116Z,97478.00
2023-03-31T00:38:19.123Z,97474.00
2023-03-31T00:38:29.244Z,97472.00
2023-03-31T00:38:39.262Z,97470.00
2023-03-31T00:38:49.553Z,97468.00
2023-03-31T00:38:59.554Z,97468.00
2023-03-31T00:39:09.690Z,97466.00
2023-03-31T00:39:19.596Z,97458.00
2023-03-31T00:39:29.655Z,97452.00
2023-03-31T00:39:39.660Z,97452.00
2023-03-31T00:39:49.674Z,97454.00
2023-03-31T00:39:59.695Z,97452.00
2023-03-31T00:40:09.908Z,97450.00
2023-03-31T00:40:19.934Z,97448.00
2023-03-31T00:40:30.064Z,97450.00
2023-03-31T00:40:40.059Z,97448.00
2023-03-31T00:40:52.597Z,97448.00
2023-03-31T00:41:00.337Z,97450.00
2023-03-31T00:41:10.343Z,97452.00
2023-03-31T00:41:20.356Z,97448.00
2023-03-31T00:41:30.374Z,97450.00
2023-03-31T00:41:40.378Z,97448.00
2023-03-31T00:41:50.392Z,97450.00
2023-03-31T00:42:00.398Z,97452.00
2023-03-31T00:42:10.424Z,97452.00
2023-03-31T00:42:20.417Z,97452.00
2023-03-31T00:42:30.434Z,97452.00
2023-03-31T00:42:40.436Z,97452.00
2023-03-31T00:42:50.456Z,97450.00
2023-03-31T00:43:00.454Z,97450.00
2023-03-31T00:43:10.572Z,97450.00
2023-03-31T00:43:20.584Z,97450.00
2023-03-31T00:43:30.593Z,97450.00
2023-03-31T00:43:40.593Z,97450.00
2023-03-31T00:43:50.842Z,97448.00
2023-03-31T00:44:00.861Z,97446.00
2023-03-31T00:44:10.970Z,97452.00
2023-03-31T00:44:21.229Z,97448.00
2023-03-31T00:44:31.351Z,97448.00
2023-03-31T00:44:41.357Z,97450.00
2023-03-31T00:44:51.678Z,97450.00
2023-03-31T00:45:01.678Z,97448.00
2023-03-31T00:45:11.694Z,97448.00
2023-03-31T00:45:21.714Z,97446.00
2023-03-31T00:45:31.736Z,97448.00
2023-03-31T00:45:41.810Z,97448.00
2023-03-31T00:45:51.864Z,97448.00
2023-03-31T00:46:01.945Z,97448.00
2023-03-31T00:46:12.079Z,97450.00
2023-03-31T00:46:22.082Z,97448.00
2023-03-31T00:46:32.231Z,97448.00
2023-03-31T00:46:42.233Z,97448.00
2023-03-31T00:46:52.487Z,97448.00
2023-03-31T00:47:02.680Z,97446.00
2023-03-31T00:47:12.673Z,97446.00
2023-03-31T00:47:22.675Z,97446.00
2023-03-31T00:47:32.699Z,97448.00
2023-03-31T00:47:42.745Z,97446.00
2023-03-31T00:47:52.871Z,97448.00
2023-03-31T00:48:02.789Z,97448.00
2023-03-31T00:48:12.834Z,97444.00
2023-03-31T00:48:22.971Z,97446.00
2023-03-31T00:48:32.987Z,97448.00
2023-03-31T00:48:43.250Z,97446.00
2023-03-31T00:48:53.389Z,97446.00
2023-03-31T00:49:03.396Z,97448.00
2023-03-31T00:49:13.660Z,97444.00
2023-03-31T00:49:23.796Z,97444.00
2023-03-31T00:49:33.682Z,97446.00
2023-03-31T00:49:43.698Z,97446.00
2023-03-31T00:49:53.726Z,97446.00
2023-03-31T00:50:03.711Z,97446.00
2023-03-31T00:50:13.721Z,97444.00
2023-03-31T00:50:23.733Z,97444.00
2023-03-31T00:50:33.747Z,97440.00
2023-03-31T00:50:43.752Z,97442.00
2023-03-31T00:50:53.766Z,97442.00
2023-03-31T00:51:03.771Z,97442.00
2023-03-31T00:51:13.788Z,97442.00
2023-03-31T00:51:23.796Z,97442.00
2023-03-31T00:51:33.798Z,97440.00
2023-03-31T00:51:43.809Z,97440.00
2023-03-31T00:51:53.817Z,97442.00
2023-03-31T00:52:03.850Z,97442.00
2023-03-31T00:52:13.854Z,97440.00
2023-03-31T00:52:23.898Z,97442.00
2023-03-31T00:52:33.898Z,97440.00
2023-03-31T00:52:43.897Z,97440.00
2023-03-31T00:52:54.023Z,97440.00
2023-03-31T00:53:04.045Z,97438.00
2023-03-31T00:53:14.312Z,97438.00
2023-03-31T00:53:24.320Z,97438.00
2023-03-31T00:53:34.323Z,97438.00
2023-03-31T00:53:44.335Z,97440.00
2023-03-31T00:53:54.341Z,97440.00
2023-03-31T00:54:04.408Z,97440.00
2023-03-31T00:54:14.399Z,97440.00
2023-03-31T00:54:24.420Z,97440.00
2023-03-31T00:54:34.417Z,97438.00
2023-03-31T00:54:44.452Z,97438.00
2023-03-31T00:54:54.454Z,97440.00
2023-03-31T00:55:04.550Z,97434.00
2023-03-31T00:55:14.553Z,97440.00
2023-03-31T00:55:24.555Z,97434.00
2023-03-31T00:55:34.572Z,97434.00
2023-03-31T00:55:44.588Z,97436.00
2023-03-31T00:55:54.588Z,97434.00
2023-03-31T00:56:04.810Z,97436.00
2023-03-31T00:56:14.731Z,97432.00
2023-03-31T00:56:24.742Z,97434.00
2023-03-31T00:56:34.770Z,97436.00
2023-03-31T00:56:45.075Z,97434.00
2023-03-31T00:56:55.113Z,97436.00
2023-03-31T00:57:05.131Z,97436.00
2023-03-31T00:57:15.165Z,97436.00
2023-03-31T00:57:25.349Z,97436.00
2023-03-31T00:57:35.263Z,97434.00
2023-03-31T00:57:45.269Z,97434.00
2023-03-31T00:57:55.297Z,97432.00
2023-03-31T00:58:05.308Z,97434.00
2023-03-31T00:58:15.311Z,97432.00
2023-03-31T00:58:25.309Z,97432.00
2023-03-31T00:58:35.317Z,97432.00
2023-03-31T00:58:45.341Z,97432.00
2023-03-31T00:58:55.342Z,97432.00
2023-03-31T00:59:05.360Z,97432.00
2023-03-31T00:59:15.354Z,97432.00
2023-03-31T00:59:25.378Z,97432.00
2023-03-31T00:59:35.378Z,97432.00
2023-03-31T00:59:45.401Z,97430.00
2023-03-31T00:59:55.399Z,97434.00
2023-03-31T01:00:08.343Z,97430.00
2023-03-31T01:00:15.471Z,97434.00
2023-03-31T01:00:25.528Z,97432.00
2023-03-31T01:00:35.557Z,97430.00
2023-03-31T01:00:45.551Z,97434.00
2023-03-31T01:00:55.693Z,97430.00
2023-03-31T01:01:15.901Z,97430.00
2023-03-31T01:01:25.909Z,97428.00
2023-03-31T01:01:36.104Z,97430.00
2023-03-31T01:01:46.041Z,97428.00
2023-03-31T01:01:56.064Z,97428.00
2023-03-31T01:02:06.064Z,97428.00
2023-03-31T01:02:16.206Z,97424.00
2023-03-31T01:02:26.274Z,97426.00
2023-03-31T01:02:36.350Z,97424.00
2023-03-31T01:02:46.379Z,97424.00
2023-03-31T01:02:56.629Z,97426.00
2023-03-31T01:03:06.808Z,97422.00
2023-03-31T01:03:16.752Z,97422.00
2023-03-31T01:03:26.731Z,97422.00
2023-03-31T01:03:36.749Z,97420.00
2023-03-31T01:03:46.970Z,97420.00
2023-03-31T01:03:56.946Z,97420.00
2023-03-31T01:04:06.998Z,97420.00
2023-03-31T01:04:17.019Z,97420.00
2023-03-31T01:04:27.028Z,97419.00
2023-03-31T01:04:37.299Z,97419.00
2023-03-31T01:04:47.303Z,97419.00
2023-03-31T01:04:57.324Z,97419.00
2023-03-31T01:05:07.326Z,97417.00
2023-03-31T01:05:17.343Z,97419.00
2023-03-31T01:05:27.345Z,97419.00
2023-03-31T01:05:37.529Z,97419.00
2023-03-31T01:05:47.555Z,97419.00
2023-03-31T01:05:57.574Z,97415.00
2023-03-31T01:06:07.873Z,97420.00
2023-03-31T01:06:17.825Z,97417.00
2023-03-31T01:06:27.831Z,97417.00
2023-03-31T01:06:37.835Z,97419.00
2023-03-31T01:06:47.841Z,97419.00
2023-03-31T01:06:57.963Z,97420.00
2023-03-31T01:07:07.971Z,97417.00
2023-03-31T01:07:17.998Z,97419.00
2023-03-31T01:07:27.997Z,97417.00
2023-03-31T01:07:37.998Z,97419.00
2023-03-31T01:07:48.012Z,97415.00
2023-03-31T01:07:58.273Z,97415.00
2023-03-31T01:08:08.302Z,97415.00
2023-03-31T01:08:18.297Z,97415.00
2023-03-31T01:08:28.310Z,97413.00
2023-03-31T01:08:38.324Z,97415.00
2023-03-31T01:08:48.352Z,97415.00
2023-03-31T01:08:58.389Z,97413.00
2023-03-31T01:09:08.387Z,97415.00
2023-03-31T01:09:18.383Z,97415.00
2023-03-31T01:09:28.387Z,97413.00
2023-03-31T01:09:38.399Z,97415.00
2023-03-31T01:09:48.411Z,97415.00
2023-03-31T01:09:58.426Z,97417.00
2023-03-31T01:10:08.422Z,97417.00
2023-03-31T01:10:18.445Z,97417.00
2023-03-31T01:10:28.473Z,97419.00
2023-03-31T01:10:38.457Z,97419.00
2023-03-31T01:10:48.462Z,97419.00
2023-03-31T01:10:58.470Z,97419.00
2023-03-31T01:11:08.592Z,97420.00
2023-03-31T01:11:18.599Z,97420.00
2023-03-31T01:11:28.612Z,97419.00
2023-03-31T01:11:38.618Z,97420.00
2023-03-31T01:11:48.634Z,97420.00
2023-03-31T01:11:58.891Z,97422.00
2023-03-31T01:12:08.901Z,97422.00
2023-03-31T01:12:18.927Z,97424.00
2023-03-31T01:12:28.947Z,97422.00
2023-03-31T01:12:38.960Z,97426.00
2023-03-31T01:12:49.078Z,97424.00
2023-03-31T01:12:59.103Z,97424.00
2023-03-31T01:13:09.114Z,97424.00
2023-03-31T01:13:19.135Z,97426.00
2023-03-31T01:13:29.152Z,97426.00
2023-03-31T01:13:39.395Z,97426.00
2023-03-31T01:13:49.406Z,97424.00
2023-03-31T01:13:59.416Z,97424.00
2023-03-31T01:14:09.458Z,97424.00
2023-03-31T01:14:19.456Z,97422.00
2023-03-31T01:14:29.483Z,97422.00
2023-03-31T01:14:39.491Z,97422.00
2023-03-31T01:14:49.492Z,97422.00
2023-03-31T01:14:59.495Z,97424.00
2023-03-31T01:15:09.523Z,97422.00
2023-03-31T01:15:19.523Z,97422.00
2023-03-31T01:15:29.532Z,97422.00
2023-03-31T01:15:39.547Z,97422.00
2023-03-31T01:15:49.554Z,97422.00
2023-03-31T01:15:59.557Z,97422.00
2023-03-31T01:16:09.581Z,97422.00
2023-03-31T01:16:19.614Z,97422.00
2023-03-31T01:16:29.660Z,97420.00
2023-03-31T01:16:39.894Z,97419.00
2023-03-31T01:16:49.916Z,97420.00
2023-03-31T01:16:59.896Z,97420.00
2023-03-31T01:17:10.058Z,97419.00
2023-03-31T01:17:20.013Z,97420.00
2023-03-31T01:17:30.114Z,97420.00
2023-03-31T01:17:40.023Z,97420.00
2023-03-31T01:17:50.167Z,97424.00
2023-03-31T01:18:00.208Z,97422.00
2023-03-31T01:18:10.207Z,97420.00
2023-03-31T01:18:20.371Z,97422.00
2023-03-31T01:18:30.209Z,97420.00
2023-03-31T01:18:40.320Z,97420.00
2023-03-31T01:18:50.279Z,97422.00
2023-03-31T01:19:00.293Z,97420.00
2023-03-31T01:19:10.307Z,97420.00
2023-03-31T01:19:20.304Z,97420.00
2023-03-31T01:19:30.326Z,97419.00
2023-03-31T01:19:40.329Z,97419.00
2023-03-31T01:19:50.345Z,97419.00
2023-03-31T01:20:00.380Z,97419.00
2023-03-31T01:20:10.367Z,97419.00
2023-03-31T01:20:20.373Z,97419.00
2023-03-31T01:20:30.380Z,97417.00
2023-03-31T01:20:40.393Z,97419.00
2023-03-31T01:20:50.403Z,97420.00
2023-03-31T01:21:00.403Z,97419.00
2023-03-31T01:21:10.413Z,97419.00
2023-03-31T01:21:20.417Z,97419.00
2023-03-31T01:21:30.416Z,97419.00
2023-03-31T01:21:40.438Z,97419.00
2023-03-31T01:21:50.444Z,97417.00
2023-03-31T01:22:00.448Z,97415.00
2023-03-31T01:22:10.452Z,97415.00
2023-03-31T01:22:20.490Z,97417.00
2023-03-31T01:22:30.518Z,97419.00
2023-03-31T01:22:40.521Z,97419.00
2023-03-31T01:22:50.539Z,97415.00
2023-03-31T01:23:00.561Z,97417.00
2023-03-31T01:23:10.560Z,97417.00
2023-03-31T01:23:20.562Z,97417.00
2023-03-31T01:23:30.937Z,97417.00
2023-03-31T01:23:40.944Z,97417.00
2023-03-31T01:23:50.970Z,97415.00
2023-03-31T01:24:00.971Z,97417.00
2023-03-31T01:24:10.980Z,97415.00
2023-03-31T01:24:20.978Z,97417.00
2023-03-31T01:24:31.104Z,97415.00
2023-03-31T01:24:41.119Z,97417.00
2023-03-31T01:24:51.116Z,97415.00
2023-03-31T01:25:01.125Z,97415.00
2023-03-31T01:25:11.379Z,97415.00
2023-03-31T01:25:21.404Z,97415.00
2023-03-31T01:25:31.406Z,97415.00
2023-03-31T01:25:41.404Z,97415.00
2023-03-31T01:25:51.421Z,97413.00
2023-03-31T01:26:01.456Z,97415.00
2023-03-31T01:26:11.456Z,97415.00
2023-03-31T01:26:21.467Z,97415.00
2023-03-31T01:26:31.472Z,97415.00
2023-03-31T01:26:41.486Z,97415.00
2023-03-31T01:26:51.498Z,97413.00
2023-03-31T01:27:01.507Z,97413.00
2023-03-31T01:27:11.634Z,97415.00
2023-03-31T01:27:21.644Z,97415.00
2023-03-31T01:27:31.659Z,97415.00
2023-03-31T01:27:41.670Z,97417.00
2023-03-31T01:27:51.690Z,97415.00
2023-03-31T01:28:01.925Z,97417.00
2023-03-31T01:28:11.960Z,97415.00
2023-03-31T01:28:21.957Z,97417.00
2023-03-31T01:28:31.965Z,97415.00
2023-03-31T01:28:42.001Z,97415.00
2023-03-31T01:28:52.014Z,97417.00
2023-03-31T01:29:02.032Z,97415.00
2023-03-31T01:29:12.075Z,97417.00
2023-03-31T01:29:22.070Z,97413.00
2023-03-31T01:29:32.066Z,97417.00
2023-03-31T01:29:42.065Z,97415.00
2023-03-31T01:29:52.209Z,97415.00
2023-03-31T01:30:02.213Z,97411.00
2023-03-31T01:30:12.208Z,97413.00
2023-03-31T01:30:22.228Z,97415.00
2023-03-31T01:30:32.227Z,97411.00
2023-03-31T01:30:42.226Z,97413.00
2023-03-31T01:30:52.525Z,97411.00
2023-03-31T01:31:02.616Z,97411.00
2023-03-31T01:31:12.707Z,97411.00
2023-03-31T01:31:22.798Z,97411.00
2023-03-31T01:31:32.760Z,97407.00
2023-03-31T01:31:42.759Z,97407.00
2023-03-31T01:31:52.867Z,97411.00
2023-03-31T01:32:02.884Z,97411.00
2023-03-31T01:32:12.886Z,97409.00
2023-03-31T01:32:22.886Z,97407.00
2023-03-31T01:32:32.940Z,97411.00
2023-03-31T01:32:42.957Z,97407.00
2023-03-31T01:32:53.030Z,97409.00
2023-03-31T01:33:03.097Z,97409.00
2023-03-31T01:33:13.164Z,97409.00
2023-03-31T01:33:23.180Z,97407.00
2023-03-31T01:33:33.198Z,97411.00
2023-03-31T01:33:43.201Z,97409.00
2023-03-31T01:33:53.258Z,97411.00
2023-03-31T01:34:03.255Z,97411.00
2023-03-31T01:34:13.382Z,97411.00
2023-03-31T01:34:23.388Z,97409.00
2023-03-31T01:34:33.406Z,97411.00
2023-03-31T01:34:43.399Z,97411.00
2023-03-31T01:34:53.676Z,97411.00
2023-03-31T01:35:03.710Z,97409.00
2023-03-31T01:35:13.700Z,97413.00
2023-03-31T01:35:23.724Z,97413.00
2023-03-31T01:35:33.728Z,97411.00
2023-03-31T01:35:43.754Z,97411.00
2023-03-31T01:35:53.851Z,97411.00
2023-03-31T01:36:04.169Z,97411.00
2023-03-31T01:36:14.022Z,97409.00
2023-03-31T01:36:24.035Z,97411.00
2023-03-31T01:36:34.189Z,97409.00
2023-03-31T01:36:44.180Z,97409.00
2023-03-31T01:36:54.193Z,97407.00
2023-03-31T01:37:04.209Z,97409.00
2023-03-31T01:37:14.224Z,97407.00
2023-03-31T01:37:24.227Z,97409.00
2023-03-31T01:37:34.236Z,97409.00
2023-03-31T01:37:44.246Z,97407.00
2023-03-31T01:37:54.360Z,97407.00
2023-03-31T01:38:04.369Z,97407.00
2023-03-31T01:38:14.613Z,97409.00
2023-03-31T01:38:24.641Z,97407.00
2023-03-31T01:38:34.646Z,97407.00
2023-03-31T01:38:44.631Z,97407.00
2023-03-31T01:38:54.648Z,97407.00
2023-03-31T01:39:04.700Z,97405.00
2023-03-31T01:39:14.741Z,97407.00
2023-03-31T01:39:24.727Z,97407.00
2023-03-31T01:39:34.860Z,97407.00
2023-03-31T01:39:44.865Z,97407.00
2023-03-31T01:39:55.138Z,97405.00
2023-03-31T01:40:05.143Z,97405.00
2023-03-31T01:40:15.159Z,97405.00
2023-03-31T01:40:25.168Z,97407.00
2023-03-31T01:40:35.179Z,97405.00
2023-03-31T01:40:45.229Z,97405.00
2023-03-31T01:40:55.229Z,97405.00
2023-03-31T01:41:05.264Z,97405.00
2023-03-31T01:41:15.266Z,97405.00
2023-03-31T01:41:25.283Z,97403.00
2023-03-31T01:41:35.285Z,97403.00
2023-03-31T01:41:45.287Z,97407.00
2023-03-31T01:41:55.293Z,97403.00
2023-03-31T01:42:05.306Z,97401.00
2023-03-31T01:42:15.325Z,97401.00
2023-03-31T01:42:25.327Z,97401.00
2023-03-31T01:42:35.461Z,97399.00
2023-03-31T01:42:45.718Z,97399.00
2023-03-31T01:42:55.854Z,97397.00
2023-03-31T01:43:05.881Z,97397.00
2023-03-31T01:43:16.132Z,97395.00
2023-03-31T01:43:26.137Z,97391.00
2023-03-31T01:43:36.146Z,97393.00
2023-03-31T01:43:46.147Z,97391.00
2023-03-31T01:43:56.271Z,97391.00
2023-03-31T01:44:06.280Z,97389.00
2023-03-31T01:44:16.423Z,97387.00
2023-03-31T01:44:26.417Z,97385.00
2023-03-31T01:44:36.418Z,97385.00
2023-03-31T01:44:46.419Z,97387.00
2023-03-31T01:44:56.546Z,97383.00
2023-03-31T01:45:06.552Z,97383.00
2023-03-31T01:45:16.577Z,97381.00
2023-03-31T01:45:26.577Z,97381.00
2023-03-31T01:45:36.592Z,97379.00
2023-03-31T01:45:46.622Z,97379.00
2023-03-31T01:45:56.644Z,97379.00
2023-03-31T01:46:07.085Z,97379.00
2023-03-31T01:46:16.743Z,97377.00
2023-03-31T01:46:26.839Z,97377.00
2023-03-31T01:46:37.162Z,97377.00
2023-03-31T01:46:47.228Z,97375.00
2023-03-31T01:46:57.286Z,97375.00
2023-03-31T01:47:07.300Z,97377.00
2023-03-31T01:47:17.306Z,97375.00
2023-03-31T01:47:27.368Z,97373.00
2023-03-31T01:47:37.402Z,97373.00
2023-03-31T01:47:47.452Z,97373.00
2023-03-31T01:47:57.493Z,97373.00
2023-03-31T01:48:07.496Z,97372.00
2023-03-31T01:48:17.486Z,97372.00
2023-03-31T01:48:27.490Z,97370.00
2023-03-31T01:48:37.616Z,97372.00
2023-03-31T01:48:47.625Z,97368.00
2023-03-31T01:48:57.624Z,97372.00
2023-03-31T01:49:07.629Z,97368.00
2023-03-31T01:49:17.765Z,97372.00
2023-03-31T01:49:27.906Z,97372.00
2023-03-31T01:49:37.918Z,97372.00
2023-03-31T01:49:47.927Z,97372.00
2023-03-31T01:49:57.936Z,97372.00
2023-03-31T01:50:07.969Z,97373.00
2023-03-31T01:50:17.961Z,97370.00
2023-03-31T01:50:27.973Z,97372.00
2023-03-31T01:50:37.982Z,97375.00
2023-03-31T01:50:48.011Z,97373.00
2023-03-31T01:50:58.072Z,97375.00
2023-03-31T01:51:08.083Z,97375.00
2023-03-31T01:51:18.089Z,97375.00
2023-03-31T01:51:28.092Z,97373.00
2023-03-31T01:51:38.218Z,97375.00
2023-03-31T01:51:48.225Z,97373.00
2023-03-31T01:51:58.310Z,97373.00
2023-03-31T01:52:08.351Z,97373.00
2023-03-31T01:52:18.644Z,97375.00
2023-03-31T01:52:28.684Z,97372.00
2023-03-31T01:52:38.694Z,97372.00
2023-03-31T01:52:48.712Z,97372.00
2023-03-31T01:52:58.729Z,97372.00
2023-03-31T01:53:08.736Z,97370.00
2023-03-31T01:53:18.743Z,97368.00
2023-03-31T01:53:28.748Z,97366.00
2023-03-31T01:53:38.746Z,97366.00
2023-03-31T01:53:48.761Z,97366.00
2023-03-31T01:53:58.771Z,97364.00
2023-03-31T01:54:08.780Z,97364.00
2023-03-31T01:54:18.789Z,97364.00
2023-03-31T01:54:28.801Z,97364.00
2023-03-31T01:54:38.820Z,97362.00
2023-03-31T01:54:48.826Z,97360.00
2023-03-31T01:54:58.831Z,97360.00
2023-03-31T01:55:08.834Z,97360.00
2023-03-31T01:55:18.870Z,97360.00
2023-03-31T01:55:28.865Z,97358.00
2023-03-31T01:55:38.871Z,97356.00
2023-03-31T01:55:48.894Z,97354.00
2023-03-31T01:55:58.898Z,97354.00
2023-03-31T01:56:08.908Z,97354.00
2023-03-31T01:56:18.920Z,97352.00
2023-03-31T01:56:28.923Z,97350.00
2023-03-31T01:56:38.936Z,97350.00
2023-03-31T01:56:48.951Z,97348.00
2023-03-31T01:56:58.998Z,97346.00
2023-03-31T01:57:09.002Z,97344.00
2023-03-31T01:57:19.049Z,97344.00
2023-03-31T01:57:29.143Z,97344.00
2023-03-31T01:57:39.154Z,97340.00
2023-03-31T01:57:49.163Z,97342.00
2023-03-31T01:57:59.195Z,97340.00
2023-03-31T01:58:09.176Z,97340.00